createdAt,value
2024-01-01T00:02:28.480Z,1005.68
2024-01-01T00:12:36.727Z,1005.61
2024-01-01T00:22:42.168Z,1005.55
2024-01-01T00:32:48.417Z,1005.55
2024-01-01T00:42:53.818Z,1005.46
2024-01-01T00:52:59.022Z,1005.56
2024-01-01T01:03:04.132Z,1005.61
2024-01-01T01:13:09.485Z,1005.69
2024-01-01T01:23:14.641Z,1005.62
2024-01-01T01:33:20.261Z,1005.57
2024-01-01T01:43:25.465Z,1005.53
2024-01-01T01:53:30.948Z,1005.51
2024-01-01T02:03:36.327Z,1005.40
2024-01-01T02:13:41.764Z,1005.28
2024-01-01T02:23:46.946Z,1005.39
2024-01-01T02:33:51.822Z,1005.33
2024-01-01T02:45:16.645Z,1005.34
2024-01-01T02:55:21.593Z,1005.28
2024-01-01T03:05:27.068Z,1005.30
2024-01-01T03:15:32.556Z,1005.34
2024-01-01T03:25:37.804Z,1005.40
2024-01-01T03:37:02.473Z,1005.35
2024-01-01T03:47:06.677Z,1005.37
2024-01-01T03:57:12.066Z,1005.22
2024-01-01T04:07:17.481Z,1005.20
2024-01-01T04:17:22.953Z,1005.23
2024-01-01T04:27:28.179Z,1005.15
2024-01-01T04:37:33.036Z,1005.21
2024-01-01T04:47:38.491Z,1005.28
2024-01-01T04:57:43.738Z,1005.16
2024-01-01T05:07:50.005Z,1005.11
2024-01-01T05:17:56.090Z,1004.95
2024-01-01T05:28:01.497Z,1004.89
2024-01-01T05:38:06.903Z,1004.90
2024-01-01T05:48:21.844Z,1005.02
2024-01-01T05:58:22.592Z,1005.10
2024-01-01T06:08:27.542Z,1005.08
2024-01-01T06:18:32.699Z,1005.20
2024-01-01T06:28:38.273Z,1005.15
2024-01-01T06:38:43.640Z,1005.13
2024-01-01T06:48:48.803Z,1005.13
2024-01-01T06:58:53.939Z,1005.23
2024-01-01T07:08:59.191Z,1005.35
2024-01-01T07:19:04.600Z,1005.39
2024-01-01T07:29:10.142Z,1005.37
2024-01-01T07:39:15.626Z,1005.35
2024-01-01T07:49:20.797Z,1005.40
2024-01-01T07:59:26.068Z,1005.41
2024-01-01T08:09:31.248Z,1005.50
2024-01-01T08:19:36.656Z,1005.55
2024-01-01T08:29:41.914Z,1005.66
2024-01-01T08:39:47.074Z,1005.67
2024-01-01T08:49:52.077Z,1005.67
2024-01-01T08:59:57.804Z,1005.81
2024-01-01T09:10:03.059Z,1005.79
2024-01-01T09:20:08.401Z,1005.86
2024-01-01T09:30:13.498Z,1005.82
2024-01-01T09:40:19.047Z,1005.85
2024-01-01T09:50:25.795Z,1005.91
2024-01-01T10:00:31.101Z,1005.83
2024-01-01T10:10:36.212Z,1005.82
2024-01-01T10:20:41.387Z,1005.87
2024-01-01T10:30:47.047Z,1005.91
2024-01-01T10:40:52.158Z,1005.85
2024-01-01T10:50:57.530Z,1005.81
2024-01-01T11:01:03.025Z,1005.90
2024-01-01T11:11:08.345Z,1005.90
2024-01-01T11:21:13.633Z,1005.88
2024-01-01T11:31:18.854Z,1005.89
2024-01-01T11:41:24.344Z,1005.79
2024-01-01T11:51:29.840Z,1005.74
2024-01-01T12:01:35.279Z,1005.68
2024-01-01T12:11:40.375Z,1005.67
2024-01-01T12:21:45.907Z,1005.62
2024-01-01T12:31:51.818Z,1005.59
2024-01-01T12:41:56.975Z,1005.57
2024-01-01T12:52:02.201Z,1005.52
2024-01-01T13:02:07.627Z,1005.52
2024-01-01T13:12:15.116Z,1005.45
2024-01-01T13:22:21.602Z,1005.55
2024-01-01T13:32:26.828Z,1005.57
2024-01-01T13:42:32.039Z,1005.61
2024-01-01T13:52:37.397Z,1005.58
2024-01-01T14:02:43.016Z,1005.55
2024-01-01T14:12:48.497Z,1005.53
2024-01-01T14:22:54.422Z,1005.62
2024-01-01T14:33:00.055Z,1005.67
2024-01-01T14:43:05.563Z,1005.69
2024-01-01T14:53:11.591Z,1005.80
2024-01-01T15:03:17.248Z,1005.81
2024-01-01T15:13:22.729Z,1005.90
2024-01-01T15:23:28.027Z,1005.94
2024-01-01T15:33:33.711Z,1006.04
2024-01-01T15:43:39.483Z,1006.18
2024-01-01T15:53:44.771Z,1006.34
2024-01-01T16:03:50.181Z,1006.43
2024-01-01T16:13:55.983Z,1006.50
2024-01-01T16:24:01.414Z,1006.59
2024-01-01T16:34:06.576Z,1006.64
2024-01-01T16:44:11.949Z,1006.65
2024-01-01T16:54:17.274Z,1006.77
2024-01-01T17:04:23.108Z,1006.91
2024-01-01T17:14:28.610Z,1006.93
2024-01-01T17:24:34.069Z,1007.02
2024-01-01T17:34:39.638Z,1007.09
2024-01-01T17:44:45.330Z,1007.22
2024-01-01T17:54:50.263Z,1007.29
2024-01-01T18:04:55.724Z,1007.40
2024-01-01T18:15:01.054Z,1007.47
2024-01-01T18:25:06.041Z,1007.59
2024-01-01T18:35:11.485Z,1007.56
2024-01-01T18:45:17.096Z,1007.52
2024-01-01T18:55:22.519Z,1007.61
2024-01-01T19:05:27.915Z,1007.56
2024-01-01T19:15:33.425Z,1007.57
2024-01-01T19:25:43.609Z,1007.57
2024-01-01T19:35:49.214Z,1007.65
2024-01-01T19:45:54.859Z,1007.70
2024-01-01T19:56:00.298Z,1007.82
2024-01-01T20:06:05.922Z,1007.83
2024-01-01T20:16:11.067Z,1007.74
2024-01-01T20:26:16.528Z,1007.85
2024-01-01T20:36:21.989Z,1007.87
2024-01-01T20:46:27.555Z,1007.95
2024-01-01T20:56:32.952Z,1007.97
2024-01-01T21:06:38.620Z,1008.02
2024-01-01T21:16:43.844Z,1008.07
2024-01-01T21:26:50.228Z,1008.04
2024-01-01T21:36:56.926Z,1008.20
2024-01-01T21:47:02.466Z,1008.14
2024-01-01T21:57:07.648Z,1008.21
2024-01-01T22:07:12.846Z,1008.23
2024-01-01T22:17:18.497Z,1008.31
2024-01-01T22:27:24.714Z,1008.28
2024-01-01T22:37:30.046Z,1008.27
2024-01-01T22:47:35.051Z,1008.39
2024-01-01T22:57:40.511Z,1008.36
2024-01-01T23:07:45.131Z,1008.37
2024-01-01T23:17:50.815Z,1008.34
2024-01-01T23:27:56.357Z,1008.43
2024-01-01T23:38:01.731Z,1008.56
2024-01-01T23:48:07.381Z,1008.53
2024-01-01T23:58:12.861Z,1008.54
